Terminal Aerodrome Forecast
Issued by NWS Twin Cities, MN

Home | Current Version | Previous Version | Graphics & Text | Print | Product List | Glossary On
Versions: 1 2 3 4 5 6 7 8 9 10 11 12 13 14 15 16 17 18 19 20 21 22 23 24 25 26 27 28 29 30
812
FTUS43 KMPX 220300 AAA
TAFMSP
TAF AMD
KMSP 220300Z 2204/2306 14008KT P6SM SCT050 SCT150
     FM220600 15010KT P6SM BKN050 OVC150 WS020/20040KT
     FM221500 17013G20KT P6SM SCT150
     FM230100 18014KT P6SM BKN150=

USA.gov is the U.S. government's official web portal to all federal, state and local government web resources and services.